createdAt,value
2022-10-17T00:00:56.507Z,1.60
2022-10-17T00:03:23.310Z,1.42
2022-10-17T00:05:50.313Z,1.50
2022-10-17T00:08:18.877Z,1.63
2022-10-17T00:10:46.543Z,1.60
2022-10-17T00:13:13.407Z,1.92
2022-10-17T00:15:45.055Z,1.85
2022-10-17T00:18:12.003Z,1.20
2022-10-17T00:20:38.884Z,1.70
2022-10-17T00:23:05.667Z,1.75
2022-10-17T00:25:32.655Z,1.95
2022-10-17T00:27:59.440Z,1.80
2022-10-17T00:30:26.458Z,1.75
2022-10-17T00:32:53.383Z,1.70
2022-10-17T00:35:20.214Z,2.10
2022-10-17T00:37:47.132Z,1.95
2022-10-17T00:40:13.933Z,1.90
2022-10-17T00:42:40.743Z,1.98
2022-10-17T00:45:21.505Z,1.50
2022-10-17T00:47:59.614Z,1.80
2022-10-17T00:50:26.913Z,2.28
2022-10-17T00:52:54.868Z,1.60
2022-10-17T00:55:29.457Z,2.03
2022-10-17T00:57:58.572Z,1.73
2022-10-17T01:00:26.066Z,2.10
2022-10-17T01:02:53.249Z,2.00
2022-10-17T01:05:21.157Z,1.92
2022-10-17T01:07:51.158Z,2.33
2022-10-17T01:10:18.687Z,1.90
2022-10-17T01:13:12.003Z,1.77
2022-10-17T01:16:04.264Z,1.92
2022-10-17T01:18:57.001Z,2.08
2022-10-17T01:21:44.722Z,2.25
2022-10-17T01:24:49.347Z,1.75
2022-10-17T01:27:31.815Z,2.00
2022-10-17T01:30:32.505Z,1.75
2022-10-17T01:33:06.836Z,1.77
2022-10-17T01:35:45.716Z,1.97
2022-10-17T01:38:30.954Z,2.08
2022-10-17T01:41:10.745Z,2.40
2022-10-17T01:44:12.093Z,2.45
2022-10-17T01:46:42.793Z,2.20
2022-10-17T01:49:13.573Z,1.95
2022-10-17T01:51:44.556Z,1.98
2022-10-17T01:54:27.948Z,1.77
2022-10-17T01:57:02.636Z,1.95
2022-10-17T01:59:37.147Z,2.00
2022-10-17T02:02:06.560Z,1.90
2022-10-17T02:04:33.549Z,1.77
2022-10-17T02:07:11.103Z,2.42
2022-10-17T02:09:38.729Z,1.75
2022-10-17T02:12:27.809Z,1.83
2022-10-17T02:15:01.080Z,1.98
2022-10-17T02:17:31.391Z,2.03
2022-10-17T02:20:26.198Z,2.20
2022-10-17T02:23:03.945Z,2.40
2022-10-17T02:25:50.924Z,1.90
2022-10-17T02:28:45.256Z,1.88
2022-10-17T02:31:23.252Z,2.50
2022-10-17T02:33:58.984Z,1.77
2022-10-17T02:36:48.508Z,1.85
2022-10-17T02:39:17.060Z,2.03
2022-10-17T02:41:46.249Z,1.80
2022-10-17T02:44:13.412Z,1.90
2022-10-17T02:46:43.141Z,1.90
2022-10-17T02:49:21.860Z,1.75
2022-10-17T02:51:57.636Z,1.92
2022-10-17T02:54:43.984Z,2.17
2022-10-17T02:57:23.803Z,2.33
2022-10-17T02:59:51.806Z,1.90
2022-10-17T03:02:18.684Z,2.00
2022-10-17T03:04:47.446Z,1.83
2022-10-17T03:07:14.467Z,1.80
2022-10-17T03:09:41.369Z,1.80
2022-10-17T03:12:08.419Z,1.95
2022-10-17T03:14:35.252Z,1.88
2022-10-17T03:17:02.171Z,2.00
2022-10-17T03:19:28.946Z,2.20
2022-10-17T03:21:56.639Z,1.75
2022-10-17T03:24:23.387Z,1.58
2022-10-17T03:26:50.141Z,1.70
2022-10-17T03:29:17.407Z,2.55
2022-10-17T03:31:44.231Z,1.63
2022-10-17T03:34:11.021Z,2.28
2022-10-17T03:36:38.094Z,1.95
2022-10-17T03:39:04.915Z,1.90
2022-10-17T03:41:31.688Z,1.60
2022-10-17T03:43:58.483Z,2.00
2022-10-17T03:46:25.242Z,1.77
2022-10-17T03:48:52.125Z,1.92
2022-10-17T03:51:19.255Z,1.88
2022-10-17T03:53:46.041Z,1.83
2022-10-17T03:56:21.938Z,1.67
2022-10-17T03:58:49.293Z,1.67
2022-10-17T04:01:18.677Z,1.80
2022-10-17T04:03:53.570Z,2.10
2022-10-17T04:06:22.018Z,1.60
2022-10-17T04:08:49.386Z,2.00
2022-10-17T04:11:20.014Z,1.90
2022-10-17T04:13:46.905Z,1.80
2022-10-17T04:16:17.209Z,1.60
2022-10-17T04:18:44.981Z,1.90
2022-10-17T04:21:12.681Z,1.80
2022-10-17T04:23:40.491Z,1.52
2022-10-17T04:26:07.585Z,1.65
2022-10-17T04:28:34.520Z,1.63
2022-10-17T04:31:12.397Z,1.98
2022-10-17T04:33:39.204Z,1.83
2022-10-17T04:36:13.200Z,1.88
2022-10-17T04:38:40.418Z,1.60
2022-10-17T04:41:11.914Z,1.73
2022-10-17T04:43:39.839Z,1.60
2022-10-17T04:46:14.072Z,2.28
2022-10-17T04:48:41.917Z,2.47
2022-10-17T04:51:13.412Z,2.00
2022-10-17T04:53:41.529Z,1.77
2022-10-17T04:56:26.541Z,1.90
2022-10-17T04:58:53.425Z,2.75
2022-10-17T05:01:22.851Z,2.13
2022-10-17T05:03:50.754Z,2.03
2022-10-17T05:06:24.287Z,1.67
2022-10-17T05:08:51.505Z,1.95
2022-10-17T05:11:28.054Z,1.80
2022-10-17T05:14:00.895Z,1.70
2022-10-17T05:16:28.995Z,1.98
2022-10-17T05:18:58.504Z,2.08
2022-10-17T05:21:27.140Z,1.90
2022-10-17T05:23:54.225Z,1.73
2022-10-17T05:26:22.459Z,2.13
2022-10-17T05:28:49.845Z,2.00
2022-10-17T05:31:16.673Z,1.80
2022-10-17T05:33:43.864Z,1.95
2022-10-17T05:36:10.676Z,2.42
2022-10-17T05:38:37.514Z,1.88
2022-10-17T05:41:05.979Z,2.20
2022-10-17T05:43:34.234Z,2.30
2022-10-17T05:46:07.963Z,2.17
2022-10-17T05:48:35.356Z,2.15
2022-10-17T05:51:06.337Z,2.55
2022-10-17T05:53:36.062Z,2.70
2022-10-17T05:56:06.736Z,2.38
2022-10-17T05:58:52.299Z,2.72
2022-10-17T06:01:20.394Z,2.50
2022-10-17T06:03:47.249Z,2.28
2022-10-17T06:06:15.976Z,2.38
2022-10-17T06:08:43.458Z,2.40
2022-10-17T06:11:11.116Z,2.08
2022-10-17T06:13:39.170Z,2.80
2022-10-17T06:16:06.989Z,2.30
2022-10-17T06:18:33.988Z,2.50
2022-10-17T06:21:12.307Z,2.20
2022-10-17T06:23:39.429Z,2.00
2022-10-17T06:26:07.914Z,2.47
2022-10-17T06:28:36.527Z,2.75
2022-10-17T06:31:16.717Z,2.10
2022-10-17T06:33:44.180Z,2.65
2022-10-17T06:36:14.104Z,2.78
2022-10-17T06:38:41.469Z,2.40
2022-10-17T06:41:15.190Z,2.42
2022-10-17T06:43:46.434Z,2.40
2022-10-17T06:46:16.923Z,2.22
2022-10-17T06:48:43.813Z,2.80
2022-10-17T06:51:12.011Z,3.13
2022-10-17T06:53:40.609Z,2.80
2022-10-17T06:56:09.941Z,2.70
2022-10-17T06:58:39.964Z,2.55
2022-10-17T07:01:10.861Z,2.70
2022-10-17T07:03:38.392Z,2.20
2022-10-17T07:06:05.788Z,2.45
2022-10-17T07:08:32.747Z,2.35
2022-10-17T07:10:59.735Z,3.22
2022-10-17T07:13:26.881Z,2.72
2022-10-17T07:18:25.335Z,2.83
2022-10-17T07:20:55.490Z,2.55
2022-10-17T07:23:23.166Z,2.35
2022-10-17T07:25:50.022Z,2.70
2022-10-17T07:28:17.051Z,2.50
2022-10-17T07:30:44.648Z,2.58
2022-10-17T07:33:12.456Z,2.60
2022-10-17T07:35:41.472Z,2.40
2022-10-17T07:38:08.649Z,2.20
2022-10-17T07:40:35.566Z,3.33
2022-10-17T07:43:02.364Z,3.40
2022-10-17T07:45:29.347Z,2.60
2022-10-17T07:47:57.940Z,2.63
2022-10-17T07:50:25.611Z,2.38
2022-10-17T07:52:52.371Z,2.53
2022-10-17T07:55:19.221Z,2.90
2022-10-17T07:57:47.897Z,2.60
2022-10-17T08:00:15.334Z,2.92
2022-10-17T08:02:42.856Z,2.78
2022-10-17T08:05:09.841Z,2.33
2022-10-17T08:07:39.247Z,2.85
2022-10-17T08:10:06.691Z,2.95
2022-10-17T08:12:34.588Z,2.83
2022-10-17T08:15:01.989Z,2.88
2022-10-17T08:17:28.799Z,3.58
2022-10-17T08:19:55.598Z,2.97
2022-10-17T08:22:22.401Z,2.45
2022-10-17T08:24:49.177Z,3.00
2022-10-17T08:27:24.200Z,2.38
2022-10-17T08:29:55.297Z,2.83
2022-10-17T08:32:26.660Z,2.90
2022-10-17T08:34:55.656Z,2.80
2022-10-17T08:37:23.755Z,2.58
2022-10-17T08:39:50.620Z,2.92
2022-10-17T08:43:07.240Z,2.65
2022-10-17T08:48:19.725Z,2.90
2022-10-17T08:51:06.922Z,3.13
2022-10-17T08:53:43.036Z,2.75
2022-10-17T08:56:48.790Z,3.05
2022-10-17T08:59:30.318Z,2.83
2022-10-17T09:02:36.916Z,2.83
2022-10-17T09:05:33.728Z,2.60
2022-10-17T09:08:14.246Z,2.90
2022-10-17T09:11:06.485Z,2.55
2022-10-17T09:13:51.578Z,3.10
2022-10-17T09:17:06.302Z,2.92
2022-10-17T09:19:41.532Z,3.08
2022-10-17T09:22:20.156Z,2.65
2022-10-17T09:25:00.326Z,3.47
2022-10-17T09:28:05.078Z,3.47
2022-10-17T09:30:46.441Z,2.45
2022-10-17T09:33:28.611Z,3.40
2022-10-17T09:36:17.011Z,3.08
2022-10-17T09:38:57.891Z,3.13
2022-10-17T09:41:49.745Z,2.45
2022-10-17T09:44:22.969Z,2.67
2022-10-17T09:47:01.743Z,3.33
2022-10-17T09:49:41.416Z,2.78
2022-10-17T09:52:19.302Z,2.55
2022-10-17T09:54:49.041Z,3.30
2022-10-17T09:57:18.718Z,2.85
2022-10-17T09:59:56.708Z,2.53
2022-10-17T10:02:26.289Z,3.10
2022-10-17T10:05:07.269Z,2.70
2022-10-17T10:07:38.420Z,2.80
2022-10-17T10:10:25.439Z,2.67
2022-10-17T10:13:18.497Z,2.92
2022-10-17T10:15:48.536Z,2.70
2022-10-17T10:18:27.314Z,2.78
2022-10-17T10:21:25.580Z,2.85
2022-10-17T10:24:10.391Z,2.90
2022-10-17T10:26:49.023Z,2.55
2022-10-17T10:29:24.841Z,3.28
2022-10-17T10:31:53.655Z,2.88
2022-10-17T10:34:30.585Z,2.55
2022-10-17T10:37:04.753Z,2.83
2022-10-17T10:39:37.034Z,2.60
2022-10-17T10:42:10.387Z,3.45
2022-10-17T10:44:40.919Z,2.65
2022-10-17T10:47:18.649Z,2.72
2022-10-17T10:49:46.877Z,2.63
2022-10-17T10:52:34.693Z,2.42
2022-10-17T10:55:22.100Z,2.60
2022-10-17T10:58:04.310Z,2.28
2022-10-17T11:00:34.621Z,2.75
2022-10-17T11:03:24.774Z,2.38
2022-10-17T11:06:13.248Z,2.20
2022-10-17T11:09:03.648Z,2.47
2022-10-17T11:11:40.723Z,2.75
2022-10-17T11:14:23.977Z,2.33
2022-10-17T11:17:06.083Z,2.53
2022-10-17T11:19:44.742Z,2.58
2022-10-17T11:22:39.618Z,1.80
2022-10-17T11:25:34.075Z,2.20
2022-10-17T11:28:10.645Z,2.00
2022-10-17T11:30:48.209Z,1.73
2022-10-17T11:33:26.140Z,1.92
2022-10-17T11:36:00.381Z,1.92
2022-10-17T11:38:36.635Z,1.43
2022-10-17T11:41:05.246Z,1.80
2022-10-17T11:44:19.488Z,2.38
2022-10-17T11:46:54.323Z,1.95
2022-10-17T11:49:40.678Z,2.20
2022-10-17T11:52:55.849Z,2.42
2022-10-17T11:55:29.568Z,1.35
2022-10-17T11:58:39.484Z,1.70
2022-10-17T12:01:36.461Z,1.88
2022-10-17T12:04:29.143Z,2.00
2022-10-17T12:10:58.157Z,2.20
2022-10-17T12:13:27.949Z,1.10
2022-10-17T12:16:21.447Z,2.03
2022-10-17T12:19:06.466Z,2.50
2022-10-17T12:21:56.162Z,1.67
2022-10-17T12:24:36.104Z,2.00
2022-10-17T12:27:36.193Z,2.17
2022-10-17T12:30:25.204Z,1.80
2022-10-17T12:33:13.331Z,1.67
2022-10-17T12:35:40.180Z,1.73
2022-10-17T12:38:27.565Z,1.70
2022-10-17T12:40:57.433Z,1.42
2022-10-17T12:43:30.233Z,2.00
2022-10-17T12:46:01.507Z,1.70
2022-10-17T12:48:34.433Z,1.38
2022-10-17T12:54:12.825Z,1.83
2022-10-17T12:56:47.088Z,1.50
2022-10-17T12:59:20.512Z,2.22
2022-10-17T13:01:51.802Z,1.65
2022-10-17T13:04:19.528Z,1.55
2022-10-17T13:06:50.161Z,2.00
2022-10-17T13:09:25.425Z,1.88
2022-10-17T13:11:54.190Z,1.90
2022-10-17T13:14:23.740Z,2.05
2022-10-17T13:16:59.445Z,1.50
2022-10-17T13:19:44.494Z,1.80
2022-10-17T13:22:18.624Z,1.73
2022-10-17T13:24:46.644Z,1.55
2022-10-17T13:27:39.797Z,1.65
2022-10-17T13:30:32.178Z,1.63
2022-10-17T13:33:00.761Z,1.70
2022-10-17T13:35:58.961Z,1.58
2022-10-17T13:38:29.145Z,1.63
2022-10-17T13:41:01.955Z,1.90
2022-10-17T13:43:38.960Z,1.67
2022-10-17T13:46:32.526Z,2.00
2022-10-17T13:48:54.857Z,1.70
2022-10-17T13:51:22.427Z,1.85
2022-10-17T13:53:49.525Z,1.98
2022-10-17T13:56:29.541Z,1.90
2022-10-17T13:59:17.691Z,2.05
2022-10-17T14:01:44.798Z,1.80
2022-10-17T14:04:19.403Z,2.33
2022-10-17T14:06:51.222Z,1.75
2022-10-17T14:09:25.705Z,1.77
2022-10-17T14:12:12.751Z,2.17
2022-10-17T14:15:08.864Z,1.95
2022-10-17T14:17:30.417Z,2.17
2022-10-17T14:20:34.421Z,1.95
2022-10-17T14:23:20.817Z,2.08
2022-10-17T14:25:41.381Z,1.90
2022-10-17T14:28:11.846Z,1.90
2022-10-17T14:30:56.312Z,2.22
2022-10-17T14:36:01.499Z,1.67
2022-10-17T14:38:30.038Z,1.83
2022-10-17T14:41:15.368Z,2.28
2022-10-17T14:43:45.583Z,1.98
2022-10-17T14:46:16.017Z,1.60
2022-10-17T14:48:43.700Z,2.22
2022-10-17T14:51:15.503Z,2.17
2022-10-17T14:53:45.380Z,1.65
2022-10-17T14:56:28.790Z,2.80
2022-10-17T14:58:55.638Z,2.42
2022-10-17T15:01:22.379Z,2.00
2022-10-17T15:03:49.401Z,2.50
2022-10-17T15:06:28.609Z,2.72
2022-10-17T15:08:55.822Z,1.73
2022-10-17T15:11:22.681Z,2.10
2022-10-17T15:13:50.351Z,1.80
2022-10-17T15:16:24.305Z,1.70
2022-10-17T15:18:52.672Z,1.98
2022-10-17T15:21:37.352Z,1.88
2022-10-17T15:24:06.540Z,1.80
2022-10-17T15:26:35.123Z,1.63
2022-10-17T15:29:02.347Z,1.80
2022-10-17T15:31:31.686Z,1.90
2022-10-17T15:33:58.493Z,1.65
2022-10-17T15:36:28.988Z,1.45
2022-10-17T15:38:58.668Z,1.70
2022-10-17T15:41:28.955Z,1.50
2022-10-17T15:43:56.504Z,1.65
2022-10-17T15:46:27.415Z,1.65
2022-10-17T15:48:55.609Z,1.48
2022-10-17T15:51:23.117Z,1.55
2022-10-17T15:53:50.225Z,1.70
2022-10-17T15:56:36.432Z,1.95
2022-10-17T15:59:08.390Z,1.80
2022-10-17T16:01:35.686Z,1.70
2022-10-17T16:04:02.870Z,1.90
2022-10-17T16:06:29.943Z,1.60
2022-10-17T16:08:56.749Z,1.40
2022-10-17T16:11:36.076Z,1.80
2022-10-17T16:14:13.247Z,1.40
2022-10-17T16:16:40.833Z,1.55
2022-10-17T16:19:07.742Z,1.65
2022-10-17T16:21:38.388Z,1.98
2022-10-17T16:24:06.226Z,1.55
2022-10-17T16:26:33.210Z,1.33
2022-10-17T16:29:03.090Z,1.88
2022-10-17T16:31:41.073Z,1.70
2022-10-17T16:34:09.089Z,1.58
2022-10-17T16:36:35.927Z,1.45
2022-10-17T16:39:03.036Z,1.75
2022-10-17T16:41:33.813Z,1.92
2022-10-17T16:44:05.443Z,1.50
2022-10-17T16:46:34.060Z,1.80
2022-10-17T16:49:00.900Z,1.60
2022-10-17T16:51:29.320Z,1.50
2022-10-17T16:53:57.209Z,1.95
2022-10-17T16:56:25.116Z,1.50
2022-10-17T16:58:52.053Z,1.85
2022-10-17T17:01:23.392Z,1.77
2022-10-17T17:03:51.844Z,2.08
2022-10-17T17:06:24.416Z,1.58
2022-10-17T17:08:51.613Z,2.03
2022-10-17T17:11:20.914Z,2.45
2022-10-17T17:13:48.093Z,2.42
2022-10-17T17:16:23.911Z,2.15
2022-10-17T17:18:59.814Z,2.67
2022-10-17T17:21:28.043Z,2.90
2022-10-17T17:23:58.791Z,2.13
2022-10-17T17:26:28.808Z,2.13
2022-10-17T17:28:59.195Z,2.13
2022-10-17T17:31:29.500Z,2.30
2022-10-17T17:36:43.728Z,2.80
2022-10-17T17:39:14.850Z,2.35
2022-10-17T17:41:42.799Z,2.70
2022-10-17T17:44:15.690Z,2.25
2022-10-17T17:46:43.807Z,3.22
2022-10-17T17:49:11.823Z,3.03
2022-10-17T17:51:38.771Z,2.97
2022-10-17T17:54:05.905Z,2.55
2022-10-17T17:56:32.820Z,3.60
2022-10-17T17:59:02.922Z,3.38
2022-10-17T18:01:36.994Z,3.30
2022-10-17T18:04:06.784Z,5.28
2022-10-17T18:06:33.559Z,5.50
2022-10-17T18:09:01.447Z,4.32
2022-10-17T18:11:29.026Z,3.45
2022-10-17T18:13:58.878Z,5.55
2022-10-17T18:16:27.928Z,6.03
2022-10-17T18:18:54.836Z,5.57
2022-10-17T18:21:21.936Z,4.90
2022-10-17T18:23:50.041Z,3.88
2022-10-17T18:26:17.021Z,3.50
2022-10-17T18:28:44.747Z,3.55
2022-10-17T18:31:13.177Z,3.20
2022-10-17T18:33:40.402Z,2.72
2022-10-17T18:36:11.474Z,2.63
2022-10-17T18:38:38.570Z,2.88
2022-10-17T18:41:12.140Z,3.20
2022-10-17T18:43:41.710Z,2.95
2022-10-17T18:46:15.606Z,3.63
2022-10-17T18:48:45.217Z,3.70
2022-10-17T18:51:14.733Z,3.60
2022-10-17T18:53:43.877Z,3.05
2022-10-17T18:56:12.074Z,3.58
2022-10-17T18:58:40.452Z,4.15
2022-10-17T19:01:12.245Z,3.95
2022-10-17T19:03:39.371Z,3.10
2022-10-17T19:06:08.628Z,2.83
2022-10-17T19:08:39.599Z,3.00
2022-10-17T19:11:16.951Z,2.20
2022-10-17T19:16:17.556Z,2.22
2022-10-17T19:18:49.856Z,2.10
2022-10-17T19:21:21.520Z,2.10
2022-10-17T19:24:16.461Z,2.33
2022-10-17T19:26:45.336Z,2.08
2022-10-17T19:29:15.009Z,1.98
2022-10-17T19:31:43.208Z,2.63
2022-10-17T19:34:12.361Z,3.20
2022-10-17T19:36:39.824Z,3.45
2022-10-17T19:39:12.299Z,3.10
2022-10-17T19:41:44.421Z,3.25
2022-10-17T19:44:11.576Z,3.45
2022-10-17T19:46:39.472Z,3.67
2022-10-17T19:49:07.324Z,3.80
2022-10-17T19:51:34.834Z,4.45
2022-10-17T19:54:02.353Z,4.00
2022-10-17T19:56:33.342Z,5.20
2022-10-17T19:59:00.152Z,4.60
2022-10-17T20:01:32.415Z,4.70
2022-10-17T20:03:59.444Z,4.78
2022-10-17T20:06:26.992Z,4.47
2022-10-17T20:08:54.185Z,4.75
2022-10-17T20:11:25.172Z,4.18
2022-10-17T20:13:53.465Z,4.28
2022-10-17T20:16:25.141Z,3.50
2022-10-17T20:18:55.698Z,3.40
2022-10-17T20:21:27.567Z,3.90
2022-10-17T20:23:55.308Z,4.13
2022-10-17T20:26:36.937Z,4.47
2022-10-17T20:29:11.212Z,4.30
2022-10-17T20:31:39.354Z,4.05
2022-10-17T20:34:06.499Z,4.18
2022-10-17T20:36:37.166Z,3.35
2022-10-17T20:39:06.013Z,2.92
2022-10-17T20:41:33.601Z,2.70
2022-10-17T20:44:00.355Z,2.50
2022-10-17T20:46:36.844Z,3.15
2022-10-17T20:49:06.698Z,3.10
2022-10-17T20:51:35.193Z,3.13
2022-10-17T20:54:03.187Z,2.22
2022-10-17T20:56:32.515Z,2.78
2022-10-17T20:59:08.130Z,2.67
2022-10-17T21:01:36.106Z,2.55
2022-10-17T21:04:27.018Z,3.05
2022-10-17T21:06:54.060Z,2.50
2022-10-17T21:09:22.041Z,3.08
2022-10-17T21:11:51.634Z,2.60
2022-10-17T21:14:18.986Z,2.75
2022-10-17T21:16:45.948Z,2.30
2022-10-17T21:19:14.155Z,2.72
2022-10-17T21:21:45.558Z,2.67
2022-10-17T21:24:17.281Z,2.17
2022-10-17T21:26:46.434Z,2.55
2022-10-17T21:29:14.463Z,2.10
2022-10-17T21:31:44.190Z,2.05
2022-10-17T21:34:21.397Z,2.58
2022-10-17T21:36:48.962Z,2.92
2022-10-17T21:39:16.453Z,3.50
2022-10-17T21:41:45.018Z,3.67
2022-10-17T21:44:16.151Z,3.75
2022-10-17T21:46:43.726Z,4.65
2022-10-17T21:49:16.901Z,3.60
2022-10-17T21:51:45.056Z,3.33
2022-10-17T21:54:12.344Z,3.13
2022-10-17T21:56:39.690Z,3.20
2022-10-17T21:59:07.202Z,2.97
2022-10-17T22:01:43.231Z,3.15
2022-10-17T22:04:17.130Z,3.17
2022-10-17T22:06:46.534Z,2.70
2022-10-17T22:09:33.341Z,3.50
2022-10-17T22:12:00.102Z,3.33
2022-10-17T22:14:28.025Z,4.00
2022-10-17T22:16:55.621Z,3.92
2022-10-17T22:19:25.757Z,4.00
2022-10-17T22:21:53.946Z,3.45
2022-10-17T22:24:22.468Z,4.00
2022-10-17T22:26:49.569Z,3.83
2022-10-17T22:29:16.941Z,3.60
2022-10-17T22:31:43.916Z,3.25
2022-10-17T22:34:13.856Z,3.10
2022-10-17T22:36:41.858Z,2.50
2022-10-17T22:39:08.699Z,2.97
2022-10-17T22:41:35.855Z,2.92
2022-10-17T22:44:05.710Z,3.22
2022-10-17T22:46:32.717Z,3.03
2022-10-17T22:48:59.742Z,2.90
2022-10-17T22:51:27.104Z,3.00
2022-10-17T22:53:54.070Z,3.47
2022-10-17T22:56:22.937Z,3.50
2022-10-17T22:58:50.396Z,3.78
2022-10-17T23:01:21.360Z,3.40
2022-10-17T23:03:49.119Z,3.15
2022-10-17T23:06:16.671Z,4.20
2022-10-17T23:08:44.210Z,4.20
2022-10-17T23:11:11.594Z,3.45
2022-10-17T23:13:40.920Z,3.35
2022-10-17T23:16:09.446Z,3.47
2022-10-17T23:18:38.166Z,3.60
2022-10-17T23:21:05.538Z,3.90
2022-10-17T23:23:32.314Z,4.00
2022-10-17T23:26:09.941Z,4.05
2022-10-17T23:28:37.888Z,3.97
2022-10-17T23:31:18.045Z,3.78
2022-10-17T23:33:47.258Z,4.35
2022-10-17T23:36:17.319Z,3.42
2022-10-17T23:38:46.300Z,3.40
2022-10-17T23:41:13.915Z,3.80
2022-10-17T23:43:41.416Z,2.65
2022-10-17T23:46:09.467Z,2.72
2022-10-17T23:48:36.348Z,2.72
2022-10-17T23:51:03.668Z,2.88
2022-10-17T23:53:30.618Z,2.33
2022-10-17T23:55:57.502Z,2.50
2022-10-17T23:58:24.341Z,2.30
